• Join FlightAware (Why Join?)
  • Login
  • US Flag 
09:01AM EDT


 

Airport Tracker/Info


-or-


 

Live Flight TrackerFlight Track Log ✈ SWA315 ✈ 07-Apr-2013 ✈ KOAK - KPHX

Flight Track Log - Related Links

Times and Time Zones

All times are in EDT time to prevent confusion due to time zone crossing. See the SWA315 flight status page for this flight to view local times or setup timezone preferences in your user account.

Time Position Orientation Groundspeed Altitude Reporting Facility
EDT Latitude Longitude Course Direction KTS MPH feet Rate Location/Type
12:22AM 37.7333 -122.2500 288° West 154 177 1,900  Level Northern Cal TRACON
12:22AM 37.7358 -122.2600 288° West 152 175 2,400 1,680 Climbing Oakland Center
12:23AM 37.7581 -122.3147 297° West 171 197 4,300 3,240 Climbing Oakland Center
12:25AM 37.7667 -122.3886 278° West 191 220 9,100 2,760 Climbing Oakland Center
12:26AM 37.6953 -122.4028 189° South 252 290 10,000 420 Climbing Oakland Center
12:27AM 37.6036 -122.4131 185° South 309 356 10,000 1,920 Level Oakland Center
12:28AM 37.5067 -122.4125 180° South 359 413 14,000 3,840 Climbing Oakland Center
12:29AM 37.4342 -122.3053 130° Southeast 412 474 17,900 3,540 Climbing Oakland Center
12:30AM 37.3589 -122.1842 128° Southeast 434 499 21,200 3,300 Climbing Oakland Center
12:31AM 37.2792 -122.0550 128° Southeast 460 529 24,700 2,820 Climbing Oakland Center
12:32AM 37.1972 -121.9208 127° Southeast 479 551 27,000 2,160 Climbing Oakland Center
12:33AM 37.1106 -121.7786 127° Southeast 510 587 29,100 1,980 Climbing Oakland Center
12:34AM 37.0094 -121.6325 131° Southeast 545 627 31,100 1,980 Climbing Oakland Center
12:35AM 36.9069 -121.4864 131° Southeast 559 643 33,200 2,460 Climbing Oakland Center
12:36AM 36.8036 -121.3292 129° Southeast 558 642 36,200 2,700 Climbing Oakland Center
12:37AM 36.7164 -121.1811 126° Southeast 530 610 38,800 1,320 Climbing Oakland Center
12:38AM 36.6261 -121.0383 128° Southeast 526 605 39,000  Climbing Oakland Center
12:39AM 36.5381 -120.8900 126° Southeast 532 612 38,900  Descending Oakland Center
12:40AM 36.4472 -120.7439 128° Southeast 535 616 39,000  Climbing Oakland Center
12:41AM 36.3272 -120.5797 132° Southeast 535 616 39,000  Level Oakland Center
12:42AM 36.2286 -120.4442 132° Southeast 532 612 39,000  Level Oakland Center
12:43AM 36.1344 -120.3128 132° Southeast 512 589 39,000  Level Oakland Center
12:44AM 36.0411 -120.1833 132° Southeast 504 580 39,000  Level Oakland Center
12:45AM 35.9494 -120.0597 132° Southeast 489 563 39,000  Level Oakland Center
12:46AM 35.8558 -119.9286 131° Southeast 503 579 39,000  Level Oakland Center
12:47AM 35.7678 -119.7908 128° Southeast 506 582 39,000  Level Oakland Center
12:48AM 35.6783 -119.6511 128° Southeast 516 594 39,000  Level Oakland Center
12:49AM 35.5892 -119.5136 129° Southeast 513 590 39,000  Level Oakland Center
12:50AM 35.5000 -119.3778 129° Southeast 510 587 39,000  Level Oakland Center
12:51AM 35.4125 -119.2431 129° Southeast 505 581 39,000  Level Oakland Center
12:52AM 35.3258 -119.1094 128° Southeast 501 577 39,000  Level Oakland Center
12:53AM 35.2406 -118.9775 128° Southeast 498 573 39,000  Level Los Angeles Center
12:54AM 35.1539 -118.8461 129° Southeast 494 568 39,000  Level Los Angeles Center
12:55AM 35.0497 -118.6900 129° Southeast 494 568 39,000  Level Los Angeles Center
12:56AM 34.9667 -118.5539 127° Southeast 498 573 39,000 -120 Level Los Angeles Center
12:57AM 34.9217 -118.4200 112° Southeast 501 577 38,800 -660 Descending Los Angeles Center
12:58AM 34.8564 -118.2311 113° Southeast 507 583 37,700 -900 Descending Los Angeles Center
12:59AM 34.8022 -118.0761 113° Southeast 504 580 37,000 -360 Descending Los Angeles Center
01:00AM 34.7483 -117.9231 113° Southeast 498 573 37,000  Level Los Angeles Center
01:01AM 34.6958 -117.7686 112° Southeast 499 574 37,000  Level Los Angeles Center
01:02AM 34.6417 -117.6139 113° Southeast 502 578 37,000  Level Los Angeles Center
01:03AM 34.5864 -117.4589 113° Southeast 505 581 37,000  Level Los Angeles Center
01:04AM 34.5211 -117.2747 113° Southeast 501 577 37,000  Level Los Angeles Center
01:05AM 34.4669 -117.1222 113° Southeast 497 572 37,000  Level Los Angeles Center
01:06AM 34.4133 -116.9725 113° Southeast 491 565 37,000  Level Los Angeles Center
01:07AM 34.3608 -116.8242 113° Southeast 483 556 37,000  Level Los Angeles Center
01:08AM 34.3078 -116.6786 114° Southeast 479 551 37,000  Level Los Angeles Center
01:09AM 34.2556 -116.5325 113° Southeast 477 549 37,000  Level Los Angeles Center
01:10AM 34.2031 -116.3831 113° Southeast 484 557 37,000  Level Los Angeles Center
01:11AM 34.1481 -116.2369 114° Southeast 481 554 37,000  Level Los Angeles Center
01:12AM 34.0928 -116.0856 114° Southeast 475 547 37,000  Level Los Angeles Center
01:13AM 34.0267 -115.9053 114° Southeast 486 559 37,000  Level Los Angeles Center
01:15AM 33.9681 -115.7478 114° Southeast 507 583 37,000  Level Los Angeles Center
01:16AM 33.9117 -115.5981 114° Southeast 493 567 37,000  Level Los Angeles Center
01:17AM 33.8564 -115.4503 114° Southeast 487 560 37,000  Level Los Angeles Center
01:18AM 33.7986 -115.3017 115° Southeast 489 563 37,000  Level Los Angeles Center
01:19AM 33.7431 -115.1525 114° Southeast 489 563 37,000  Level Los Angeles Center
01:20AM 33.6864 -115.0061 115° Southeast 485 558 37,000  Level Los Angeles Center
01:21AM 33.6331 -114.8664 115° Southeast 474 545 37,000 -120 Level Los Angeles Center
01:22AM 33.5839 -114.7219 112° Southeast 470 541 36,800 -1,440 Descending Los Angeles Center
01:23AM 33.5567 -114.5669 102° East 474 545 34,100 -3,180 Descending Los Angeles Center
01:24AM 33.5211 -114.3803 103° East 477 549 30,400 -3,300 Descending Los Angeles Center
01:25AM 33.4908 -114.2231 103° East 480 552 27,400 -2,640 Descending Los Angeles Center
01:26AM 33.4594 -114.0717 104° East 477 549 25,000 -1,200 Descending Los Angeles Center
01:27AM 33.4322 -113.9250 103° East 450 518 25,000  Level Albuquerque Center
01:28AM 33.4033 -113.7822 104° East 443 510 25,000  Level Albuquerque Center
01:29AM 33.3758 -113.6400 103° East 441 507 25,000  Level Albuquerque Center
01:30AM 33.3600 -113.4947 97° East 441 507 25,000 -180 Level Albuquerque Center
01:31AM 33.3436 -113.3478 98° East 444 511 24,700 -1,500 Descending Albuquerque Center
01:32AM 33.3269 -113.2039 98° East 440 506 22,000 -2,520 Descending Albuquerque Center
01:33AM 33.3103 -113.0664 98° East 426 490 19,600 -2,520 Descending Albuquerque Center
01:34AM 33.2942 -112.9336 98° East 410 472 17,000 -2,280 Descending Albuquerque Center
01:35AM 33.2797 -112.8094 98° East 388 447 15,100 -1,020 Descending Albuquerque Center
01:36AM 33.2822 -112.6889 89° East 368 423 15,000 -960 Descending Albuquerque Center
01:37AM 33.2872 -112.5519 87° East 362 417 13,200 -1,440 Descending Albuquerque Center
01:38AM 33.2900 -112.4342 88° East 356 410 12,200 -1,140 Descending Albuquerque Center
01:39AM 33.2939 -112.3189 88° East 349 402 11,000 -1,080 Descending Albuquerque Center
01:40AM 33.3022 -112.2092 85° East 335 386 10,100 -960 Descending Albuquerque Center
01:41AM 33.3103 -112.1103 84° East 301 346 9,100 -720 Descending Albuquerque Center
01:42AM 33.3300 -112.0208 75° East 279 321 8,700 -900 Descending Albuquerque Center
01:43AM 33.3464 -111.9483 75° East 229 264 7,300 -1,740 Descending Albuquerque Center
01:44AM 33.3467 -111.8783 90° East 212 244 5,300 -1,620 Descending Albuquerque Center
01:45AM 33.3939 -111.8650 13° North 174 200 4,100 -1,200 Descending Albuquerque Center
01:46AM 33.4233 -111.8961 319° Northwest 149 171 2,900 -1,020 Descending Albuquerque Center
01:47AM 33.4300 -111.9400 280° West 135 155 2,100 -720 Descending Albuquerque Center
01:48AM 33.4294 -111.9822 269° West 127 146 1,500 -540 Descending Albuquerque Center
01:49AM 33.4281 -112.0264 268° West 127 146 1,100 -420 Descending Albuquerque Center